sensor_id;sensor_type;location;lat;lon;timestamp;P1;durP1;ratioP1;P2;durP2;ratioP2
56381;SDS011;50261;51.150;4.470;2023-07-16T00:00:49;11.60;;;1.77;;
56381;SDS011;50261;51.150;4.470;2023-07-16T00:03:15;8.20;;;1.58;;
56381;SDS011;50261;51.150;4.470;2023-07-16T00:05:40;5.78;;;1.58;;
56381;SDS011;50261;51.150;4.470;2023-07-16T00:08:06;4.90;;;1.40;;
56381;SDS011;50261;51.150;4.470;2023-07-16T00:10:35;5.63;;;1.42;;
56381;SDS011;50261;51.150;4.470;2023-07-16T00:13:01;4.05;;;1.30;;
56381;SDS011;50261;51.150;4.470;2023-07-16T00:15:28;7.50;;;1.92;;
56381;SDS011;50261;51.150;4.470;2023-07-16T00:17:54;3.40;;;1.15;;
56381;SDS011;50261;51.150;4.470;2023-07-16T00:20:20;4.28;;;1.30;;
56381;SDS011;50261;51.150;4.470;2023-07-16T00:22:46;8.00;;;2.05;;
56381;SDS011;50261;51.150;4.470;2023-07-16T00:25:12;8.07;;;1.63;;
56381;SDS011;50261;51.150;4.470;2023-07-16T00:27:37;4.95;;;1.50;;
56381;SDS011;50261;51.150;4.470;2023-07-16T00:30:03;5.65;;;2.15;;
56381;SDS011;50261;51.150;4.470;2023-07-16T00:32:29;9.88;;;2.00;;
56381;SDS011;50261;51.150;4.470;2023-07-16T00:34:55;8.82;;;1.80;;
56381;SDS011;50261;51.150;4.470;2023-07-16T00:37:20;6.10;;;2.00;;
56381;SDS011;50261;51.150;4.470;2023-07-16T00:39:46;8.07;;;1.92;;
56381;SDS011;50261;51.150;4.470;2023-07-16T00:42:12;5.43;;;1.80;;
56381;SDS011;50261;51.150;4.470;2023-07-16T00:44:37;5.60;;;1.70;;
56381;SDS011;50261;51.150;4.470;2023-07-16T00:47:03;8.57;;;1.73;;
56381;SDS011;50261;51.150;4.470;2023-07-16T00:49:29;4.13;;;1.63;;
56381;SDS011;50261;51.150;4.470;2023-07-16T00:51:55;6.50;;;1.73;;
56381;SDS011;50261;51.150;4.470;2023-07-16T00:54:20;5.60;;;1.85;;
56381;SDS011;50261;51.150;4.470;2023-07-16T00:56:46;7.03;;;1.90;;
56381;SDS011;50261;51.150;4.470;2023-07-16T00:59:12;5.15;;;1.85;;
56381;SDS011;50261;51.150;4.470;2023-07-16T01:01:38;9.10;;;1.65;;
56381;SDS011;50261;51.150;4.470;2023-07-16T01:04:04;10.95;;;1.85;;
56381;SDS011;50261;51.150;4.470;2023-07-16T01:06:35;5.05;;;1.35;;
56381;SDS011;50261;51.150;4.470;2023-07-16T01:09:03;10.68;;;2.17;;
56381;SDS011;50261;51.150;4.470;2023-07-16T01:11:29;8.02;;;1.63;;
56381;SDS011;50261;51.150;4.470;2023-07-16T01:13:55;6.38;;;1.80;;
56381;SDS011;50261;51.150;4.470;2023-07-16T01:16:22;5.82;;;2.53;;
56381;SDS011;50261;51.150;4.470;2023-07-16T01:18:49;5.22;;;1.65;;
56381;SDS011;50261;51.150;4.470;2023-07-16T01:21:18;5.50;;;1.90;;
56381;SDS011;50261;51.150;4.470;2023-07-16T01:31:21;7.00;;;2.20;;
56381;SDS011;50261;51.150;4.470;2023-07-16T01:33:48;7.57;;;1.88;;
56381;SDS011;50261;51.150;4.470;2023-07-16T01:36:14;5.15;;;1.50;;
56381;SDS011;50261;51.150;4.470;2023-07-16T01:38:40;6.88;;;2.00;;
56381;SDS011;50261;51.150;4.470;2023-07-16T01:41:05;9.25;;;1.95;;
56381;SDS011;50261;51.150;4.470;2023-07-16T01:43:31;9.65;;;2.60;;
56381;SDS011;50261;51.150;4.470;2023-07-16T01:45:57;8.18;;;2.17;;
56381;SDS011;50261;51.150;4.470;2023-07-16T01:48:28;9.20;;;1.83;;
56381;SDS011;50261;51.150;4.470;2023-07-16T01:50:55;6.25;;;2.05;;
56381;SDS011;50261;51.150;4.470;2023-07-16T01:53:21;6.13;;;2.00;;
56381;SDS011;50261;51.150;4.470;2023-07-16T01:55:47;5.90;;;1.92;;
56381;SDS011;50261;51.150;4.470;2023-07-16T01:58:12;6.15;;;2.08;;
56381;SDS011;50261;51.150;4.470;2023-07-16T02:00:38;6.70;;;1.80;;
56381;SDS011;50261;51.150;4.470;2023-07-16T02:03:04;5.97;;;1.40;;
56381;SDS011;50261;51.150;4.470;2023-07-16T02:05:31;6.00;;;1.90;;
56381;SDS011;50261;51.150;4.470;2023-07-16T02:07:56;11.18;;;2.38;;
56381;SDS011;50261;51.150;4.470;2023-07-16T02:10:22;4.75;;;1.73;;
56381;SDS011;50261;51.150;4.470;2023-07-16T02:12:48;7.95;;;2.08;;
56381;SDS011;50261;51.150;4.470;2023-07-16T02:15:13;7.97;;;2.17;;
56381;SDS011;50261;51.150;4.470;2023-07-16T02:17:41;7.85;;;2.10;;
56381;SDS011;50261;51.150;4.470;2023-07-16T02:20:08;8.75;;;2.30;;
56381;SDS011;50261;51.150;4.470;2023-07-16T02:22:36;8.15;;;2.17;;
56381;SDS011;50261;51.150;4.470;2023-07-16T02:25:01;7.13;;;2.08;;
56381;SDS011;50261;51.150;4.470;2023-07-16T02:27:27;5.70;;;2.17;;
56381;SDS011;50261;51.150;4.470;2023-07-16T02:29:53;6.40;;;2.30;;
56381;SDS011;50261;51.150;4.470;2023-07-16T02:32:19;7.82;;;3.10;;
56381;SDS011;50261;51.150;4.470;2023-07-16T02:34:44;5.93;;;2.67;;
56381;SDS011;50261;51.150;4.470;2023-07-16T02:37:10;9.07;;;2.97;;
56381;SDS011;50261;51.150;4.470;2023-07-16T02:39:35;4.50;;;2.20;;
56381;SDS011;50261;51.150;4.470;2023-07-16T02:42:01;6.15;;;2.78;;
56381;SDS011;50261;51.150;4.470;2023-07-16T02:44:27;8.75;;;3.38;;
56381;SDS011;50261;51.150;4.470;2023-07-16T02:46:53;6.07;;;2.63;;
56381;SDS011;50261;51.150;4.470;2023-07-16T02:49:20;7.05;;;2.90;;
56381;SDS011;50261;51.150;4.470;2023-07-16T02:51:46;8.63;;;2.92;;
56381;SDS011;50261;51.150;4.470;2023-07-16T02:54:11;6.78;;;2.90;;
56381;SDS011;50261;51.150;4.470;2023-07-16T02:56:37;7.50;;;2.90;;
56381;SDS011;50261;51.150;4.470;2023-07-16T02:59:03;6.53;;;3.03;;
56381;SDS011;50261;51.150;4.470;2023-07-16T03:01:28;9.75;;;3.13;;
56381;SDS011;50261;51.150;4.470;2023-07-16T03:03:54;8.30;;;2.95;;
56381;SDS011;50261;51.150;4.470;2023-07-16T03:06:22;8.52;;;2.85;;
56381;SDS011;50261;51.150;4.470;2023-07-16T03:08:49;6.65;;;2.63;;
56381;SDS011;50261;51.150;4.470;2023-07-16T03:11:17;8.60;;;3.10;;
56381;SDS011;50261;51.150;4.470;2023-07-16T03:13:43;6.70;;;2.75;;
56381;SDS011;50261;51.150;4.470;2023-07-16T03:16:09;9.32;;;2.53;;
56381;SDS011;50261;51.150;4.470;2023-07-16T03:18:34;8.75;;;2.92;;
56381;SDS011;50261;51.150;4.470;2023-07-16T03:21:00;6.93;;;2.70;;
56381;SDS011;50261;51.150;4.470;2023-07-16T03:23:26;5.07;;;2.95;;
56381;SDS011;50261;51.150;4.470;2023-07-16T03:25:52;8.30;;;3.10;;
56381;SDS011;50261;51.150;4.470;2023-07-16T03:28:18;7.75;;;3.30;;
56381;SDS011;50261;51.150;4.470;2023-07-16T03:30:48;5.63;;;2.92;;
56381;SDS011;50261;51.150;4.470;2023-07-16T03:33:14;7.38;;;3.20;;
56381;SDS011;50261;51.150;4.470;2023-07-16T03:35:44;8.82;;;3.35;;
56381;SDS011;50261;51.150;4.470;2023-07-16T03:38:13;6.20;;;2.95;;
56381;SDS011;50261;51.150;4.470;2023-07-16T03:40:39;7.60;;;3.50;;
56381;SDS011;50261;51.150;4.470;2023-07-16T03:43:06;6.40;;;3.15;;
56381;SDS011;50261;51.150;4.470;2023-07-16T03:45:32;6.57;;;3.42;;
56381;SDS011;50261;51.150;4.470;2023-07-16T03:47:58;9.30;;;3.92;;
56381;SDS011;50261;51.150;4.470;2023-07-16T03:50:24;5.82;;;3.33;;
56381;SDS011;50261;51.150;4.470;2023-07-16T03:52:50;10.07;;;4.35;;
56381;SDS011;50261;51.150;4.470;2023-07-16T03:55:16;10.63;;;3.70;;
56381;SDS011;50261;51.150;4.470;2023-07-16T03:57:42;10.60;;;4.03;;
56381;SDS011;50261;51.150;4.470;2023-07-16T04:00:08;8.85;;;3.58;;
56381;SDS011;50261;51.150;4.470;2023-07-16T04:02:44;11.95;;;4.50;;
56381;SDS011;50261;51.150;4.470;2023-07-16T04:05:15;8.88;;;3.97;;
56381;SDS011;50261;51.150;4.470;2023-07-16T04:07:41;9.63;;;3.53;;
56381;SDS011;50261;51.150;4.470;2023-07-16T04:10:07;10.30;;;3.42;;
56381;SDS011;50261;51.150;4.470;2023-07-16T04:12:33;9.45;;;3.83;;
56381;SDS011;50261;51.150;4.470;2023-07-16T04:14:58;8.43;;;3.58;;
56381;SDS011;50261;51.150;4.470;2023-07-16T04:17:25;10.55;;;3.47;;
56381;SDS011;50261;51.150;4.470;2023-07-16T04:19:51;10.00;;;4.47;;
56381;SDS011;50261;51.150;4.470;2023-07-16T04:22:16;9.73;;;3.75;;
56381;SDS011;50261;51.150;4.470;2023-07-16T04:24:42;9.07;;;4.20;;
56381;SDS011;50261;51.150;4.470;2023-07-16T04:27:08;11.43;;;3.83;;
56381;SDS011;50261;51.150;4.470;2023-07-16T04:29:33;8.45;;;3.53;;
56381;SDS011;50261;51.150;4.470;2023-07-16T04:31:59;8.82;;;3.97;;
56381;SDS011;50261;51.150;4.470;2023-07-16T04:34:25;8.02;;;3.83;;
56381;SDS011;50261;51.150;4.470;2023-07-16T04:36:50;7.40;;;3.50;;
56381;SDS011;50261;51.150;4.470;2023-07-16T04:39:16;9.98;;;4.85;;
56381;SDS011;50261;51.150;4.470;2023-07-16T04:41:42;9.32;;;5.28;;
56381;SDS011;50261;51.150;4.470;2023-07-16T04:44:07;9.65;;;4.50;;
56381;SDS011;50261;51.150;4.470;2023-07-16T04:46:33;11.77;;;4.38;;
56381;SDS011;50261;51.150;4.470;2023-07-16T04:48:59;11.10;;;4.80;;
56381;SDS011;50261;51.150;4.470;2023-07-16T04:51:25;13.80;;;4.70;;
56381;SDS011;50261;51.150;4.470;2023-07-16T04:53:50;10.60;;;4.85;;
56381;SDS011;50261;51.150;4.470;2023-07-16T04:56:16;12.98;;;4.60;;
56381;SDS011;50261;51.150;4.470;2023-07-16T04:58:42;11.35;;;5.20;;
56381;SDS011;50261;51.150;4.470;2023-07-16T05:01:08;11.23;;;4.38;;
56381;SDS011;50261;51.150;4.470;2023-07-16T05:03:34;13.75;;;4.82;;
56381;SDS011;50261;51.150;4.470;2023-07-16T05:05:59;10.35;;;4.32;;
56381;SDS011;50261;51.150;4.470;2023-07-16T05:08:25;8.80;;;4.18;;
56381;SDS011;50261;51.150;4.470;2023-07-16T05:10:51;10.93;;;3.97;;
56381;SDS011;50261;51.150;4.470;2023-07-16T05:13:17;12.80;;;4.47;;
56381;SDS011;50261;51.150;4.470;2023-07-16T05:15:45;9.43;;;4.47;;
56381;SDS011;50261;51.150;4.470;2023-07-16T05:18:11;8.70;;;4.43;;
56381;SDS011;50261;51.150;4.470;2023-07-16T05:20:37;12.07;;;5.07;;
56381;SDS011;50261;51.150;4.470;2023-07-16T05:23:03;10.02;;;4.25;;
56381;SDS011;50261;51.150;4.470;2023-07-16T05:25:29;9.00;;;4.25;;
56381;SDS011;50261;51.150;4.470;2023-07-16T05:27:55;13.75;;;4.70;;
56381;SDS011;50261;51.150;4.470;2023-07-16T05:30:21;12.70;;;5.15;;
56381;SDS011;50261;51.150;4.470;2023-07-16T05:32:46;13.90;;;5.80;;
56381;SDS011;50261;51.150;4.470;2023-07-16T05:35:12;13.50;;;4.95;;
56381;SDS011;50261;51.150;4.470;2023-07-16T05:37:38;11.60;;;5.20;;
56381;SDS011;50261;51.150;4.470;2023-07-16T05:40:04;14.20;;;5.57;;
56381;SDS011;50261;51.150;4.470;2023-07-16T05:42:29;14.85;;;4.97;;
56381;SDS011;50261;51.150;4.470;2023-07-16T05:44:55;10.02;;;5.53;;
56381;SDS011;50261;51.150;4.470;2023-07-16T05:47:21;13.95;;;5.57;;
56381;SDS011;50261;51.150;4.470;2023-07-16T05:49:47;8.88;;;4.55;;
56381;SDS011;50261;51.150;4.470;2023-07-16T05:52:13;11.15;;;5.70;;
56381;SDS011;50261;51.150;4.470;2023-07-16T05:54:38;15.15;;;5.47;;
56381;SDS011;50261;51.150;4.470;2023-07-16T05:57:04;11.68;;;5.15;;
56381;SDS011;50261;51.150;4.470;2023-07-16T05:59:30;12.25;;;5.45;;
56381;SDS011;50261;51.150;4.470;2023-07-16T06:01:59;10.23;;;5.00;;
56381;SDS011;50261;51.150;4.470;2023-07-16T06:04:25;9.80;;;5.32;;
56381;SDS011;50261;51.150;4.470;2023-07-16T06:06:51;14.10;;;5.18;;
56381;SDS011;50261;51.150;4.470;2023-07-16T06:09:17;13.15;;;4.88;;
56381;SDS011;50261;51.150;4.470;2023-07-16T06:11:45;14.77;;;6.00;;
56381;SDS011;50261;51.150;4.470;2023-07-16T06:14:11;13.02;;;5.80;;
56381;SDS011;50261;51.150;4.470;2023-07-16T06:16:37;17.40;;;4.20;;
56381;SDS011;50261;51.150;4.470;2023-07-16T06:19:02;11.48;;;6.07;;
56381;SDS011;50261;51.150;4.470;2023-07-16T06:21:28;13.57;;;4.15;;
56381;SDS011;50261;51.150;4.470;2023-07-16T06:23:54;12.55;;;4.85;;
56381;SDS011;50261;51.150;4.470;2023-07-16T06:26:19;11.35;;;6.10;;
56381;SDS011;50261;51.150;4.470;2023-07-16T06:28:47;12.50;;;5.53;;
56381;SDS011;50261;51.150;4.470;2023-07-16T06:31:16;17.40;;;6.50;;
56381;SDS011;50261;51.150;4.470;2023-07-16T06:33:41;12.27;;;5.40;;
56381;SDS011;50261;51.150;4.470;2023-07-16T06:36:07;10.27;;;5.80;;
56381;SDS011;50261;51.150;4.470;2023-07-16T06:38:33;11.68;;;5.55;;
56381;SDS011;50261;51.150;4.470;2023-07-16T06:40:59;11.07;;;4.57;;
56381;SDS011;50261;51.150;4.470;2023-07-16T06:43:24;11.32;;;5.15;;
56381;SDS011;50261;51.150;4.470;2023-07-16T06:45:50;11.68;;;6.55;;
56381;SDS011;50261;51.150;4.470;2023-07-16T06:48:16;13.77;;;6.10;;
56381;SDS011;50261;51.150;4.470;2023-07-16T06:50:42;11.48;;;5.05;;
56381;SDS011;50261;51.150;4.470;2023-07-16T06:53:08;14.85;;;5.88;;
56381;SDS011;50261;51.150;4.470;2023-07-16T06:55:33;13.35;;;6.70;;
56381;SDS011;50261;51.150;4.470;2023-07-16T06:57:59;15.02;;;6.07;;
56381;SDS011;50261;51.150;4.470;2023-07-16T07:00:25;15.23;;;6.32;;
56381;SDS011;50261;51.150;4.470;2023-07-16T07:02:51;17.83;;;4.63;;
56381;SDS011;50261;51.150;4.470;2023-07-16T07:05:16;13.10;;;5.85;;
56381;SDS011;50261;51.150;4.470;2023-07-16T07:07:42;13.73;;;5.15;;
56381;SDS011;50261;51.150;4.470;2023-07-16T07:10:11;11.43;;;4.82;;
56381;SDS011;50261;51.150;4.470;2023-07-16T07:12:36;13.48;;;5.18;;
56381;SDS011;50261;51.150;4.470;2023-07-16T07:15:04;18.27;;;5.78;;
56381;SDS011;50261;51.150;4.470;2023-07-16T07:17:30;15.07;;;5.50;;
56381;SDS011;50261;51.150;4.470;2023-07-16T07:19:55;12.77;;;4.88;;
56381;SDS011;50261;51.150;4.470;2023-07-16T07:22:21;10.23;;;4.53;;
56381;SDS011;50261;51.150;4.470;2023-07-16T07:24:46;9.60;;;5.03;;
56381;SDS011;50261;51.150;4.470;2023-07-16T07:27:12;13.10;;;6.13;;
56381;SDS011;50261;51.150;4.470;2023-07-16T07:29:37;11.32;;;5.35;;
56381;SDS011;50261;51.150;4.470;2023-07-16T07:32:03;12.32;;;5.05;;
56381;SDS011;50261;51.150;4.470;2023-07-16T07:34:29;15.43;;;5.63;;
56381;SDS011;50261;51.150;4.470;2023-07-16T07:36:54;12.88;;;5.43;;
56381;SDS011;50261;51.150;4.470;2023-07-16T07:39:20;14.15;;;5.65;;
56381;SDS011;50261;51.150;4.470;2023-07-16T07:41:46;13.43;;;6.25;;
56381;SDS011;50261;51.150;4.470;2023-07-16T07:44:11;11.65;;;3.88;;
56381;SDS011;50261;51.150;4.470;2023-07-16T07:46:37;16.65;;;5.47;;
56381;SDS011;50261;51.150;4.470;2023-07-16T07:49:03;8.27;;;4.40;;
56381;SDS011;50261;51.150;4.470;2023-07-16T07:51:28;11.70;;;4.90;;
56381;SDS011;50261;51.150;4.470;2023-07-16T07:53:54;17.40;;;5.50;;
56381;SDS011;50261;51.150;4.470;2023-07-16T07:56:20;13.38;;;5.25;;
56381;SDS011;50261;51.150;4.470;2023-07-16T07:58:45;8.77;;;3.85;;
56381;SDS011;50261;51.150;4.470;2023-07-16T08:01:11;11.02;;;5.88;;
56381;SDS011;50261;51.150;4.470;2023-07-16T08:03:37;11.10;;;4.80;;
56381;SDS011;50261;51.150;4.470;2023-07-16T08:06:02;13.90;;;4.65;;
56381;SDS011;50261;51.150;4.470;2023-07-16T08:08:28;7.90;;;4.65;;
56381;SDS011;50261;51.150;4.470;2023-07-16T08:10:54;10.52;;;4.05;;
56381;SDS011;50261;51.150;4.470;2023-07-16T08:13:20;10.35;;;4.75;;
56381;SDS011;50261;51.150;4.470;2023-07-16T08:15:45;8.80;;;4.25;;
56381;SDS011;50261;51.150;4.470;2023-07-16T08:18:12;13.30;;;6.15;;
56381;SDS011;50261;51.150;4.470;2023-07-16T08:20:38;15.85;;;5.72;;
56381;SDS011;50261;51.150;4.470;2023-07-16T08:23:04;10.88;;;4.85;;
56381;SDS011;50261;51.150;4.470;2023-07-16T08:25:29;10.05;;;4.40;;
56381;SDS011;50261;51.150;4.470;2023-07-16T08:27:55;8.00;;;3.55;;
56381;SDS011;50261;51.150;4.470;2023-07-16T08:30:21;9.65;;;4.40;;
56381;SDS011;50261;51.150;4.470;2023-07-16T08:32:46;9.90;;;3.97;;
56381;SDS011;50261;51.150;4.470;2023-07-16T08:35:12;11.77;;;4.80;;
56381;SDS011;50261;51.150;4.470;2023-07-16T08:37:44;10.48;;;4.82;;
56381;SDS011;50261;51.150;4.470;2023-07-16T08:40:11;9.38;;;5.07;;
56381;SDS011;50261;51.150;4.470;2023-07-16T08:42:37;17.40;;;5.60;;
56381;SDS011;50261;51.150;4.470;2023-07-16T08:45:04;12.98;;;4.63;;
56381;SDS011;50261;51.150;4.470;2023-07-16T08:47:31;9.52;;;4.38;;
56381;SDS011;50261;51.150;4.470;2023-07-16T08:49:57;10.43;;;5.00;;
56381;SDS011;50261;51.150;4.470;2023-07-16T08:52:23;14.85;;;5.18;;
56381;SDS011;50261;51.150;4.470;2023-07-16T08:54:49;7.22;;;3.28;;
56381;SDS011;50261;51.150;4.470;2023-07-16T08:57:14;9.95;;;4.57;;
56381;SDS011;50261;51.150;4.470;2023-07-16T08:59:40;8.40;;;3.92;;
56381;SDS011;50261;51.150;4.470;2023-07-16T09:02:06;11.63;;;4.95;;
56381;SDS011;50261;51.150;4.470;2023-07-16T09:04:32;10.32;;;4.82;;
56381;SDS011;50261;51.150;4.470;2023-07-16T09:06:58;10.27;;;5.57;;
56381;SDS011;50261;51.150;4.470;2023-07-16T09:09:24;11.82;;;4.95;;
56381;SDS011;50261;51.150;4.470;2023-07-16T09:11:50;10.98;;;3.97;;
56381;SDS011;50261;51.150;4.470;2023-07-16T09:14:16;11.10;;;4.32;;
56381;SDS011;50261;51.150;4.470;2023-07-16T09:16:42;12.18;;;4.55;;
56381;SDS011;50261;51.150;4.470;2023-07-16T09:19:11;11.93;;;4.45;;
56381;SDS011;50261;51.150;4.470;2023-07-16T09:21:39;11.10;;;4.00;;
56381;SDS011;50261;51.150;4.470;2023-07-16T09:24:07;9.20;;;4.50;;
56381;SDS011;50261;51.150;4.470;2023-07-16T09:26:36;7.57;;;3.90;;
56381;SDS011;50261;51.150;4.470;2023-07-16T09:29:05;7.47;;;2.53;;
56381;SDS011;50261;51.150;4.470;2023-07-16T09:31:31;8.07;;;3.92;;
56381;SDS011;50261;51.150;4.470;2023-07-16T09:33:56;9.02;;;4.47;;
56381;SDS011;50261;51.150;4.470;2023-07-16T09:36:23;6.97;;;3.63;;
56381;SDS011;50261;51.150;4.470;2023-07-16T09:38:48;7.30;;;3.67;;
56381;SDS011;50261;51.150;4.470;2023-07-16T09:41:14;7.47;;;4.03;;
56381;SDS011;50261;51.150;4.470;2023-07-16T09:43:40;9.02;;;4.07;;
56381;SDS011;50261;51.150;4.470;2023-07-16T09:46:06;11.30;;;4.15;;
56381;SDS011;50261;51.150;4.470;2023-07-16T09:48:31;13.40;;;4.00;;
56381;SDS011;50261;51.150;4.470;2023-07-16T09:50:57;8.15;;;3.63;;
56381;SDS011;50261;51.150;4.470;2023-07-16T09:53:24;9.35;;;4.35;;
56381;SDS011;50261;51.150;4.470;2023-07-16T09:55:49;8.63;;;4.00;;
56381;SDS011;50261;51.150;4.470;2023-07-16T09:58:16;7.55;;;3.20;;
56381;SDS011;50261;51.150;4.470;2023-07-16T10:00:44;6.07;;;3.50;;
56381;SDS011;50261;51.150;4.470;2023-07-16T10:03:11;8.05;;;4.07;;
56381;SDS011;50261;51.150;4.470;2023-07-16T10:05:37;9.40;;;4.07;;
56381;SDS011;50261;51.150;4.470;2023-07-16T10:08:03;11.10;;;4.50;;
56381;SDS011;50261;51.150;4.470;2023-07-16T10:10:43;13.15;;;5.05;;
56381;SDS011;50261;51.150;4.470;2023-07-16T10:13:11;10.30;;;3.88;;
56381;SDS011;50261;51.150;4.470;2023-07-16T10:15:37;12.55;;;5.30;;
56381;SDS011;50261;51.150;4.470;2023-07-16T10:18:02;9.05;;;5.00;;
56381;SDS011;50261;51.150;4.470;2023-07-16T10:20:29;11.93;;;3.35;;
56381;SDS011;50261;51.150;4.470;2023-07-16T10:22:55;10.20;;;4.32;;
56381;SDS011;50261;51.150;4.470;2023-07-16T10:25:22;12.52;;;4.40;;
56381;SDS011;50261;51.150;4.470;2023-07-16T10:27:48;11.90;;;4.28;;
56381;SDS011;50261;51.150;4.470;2023-07-16T10:30:14;10.82;;;4.55;;
56381;SDS011;50261;51.150;4.470;2023-07-16T10:32:40;11.95;;;4.65;;
56381;SDS011;50261;51.150;4.470;2023-07-16T10:35:06;9.95;;;3.95;;
56381;SDS011;50261;51.150;4.470;2023-07-16T10:37:34;10.77;;;4.25;;
56381;SDS011;50261;51.150;4.470;2023-07-16T10:40:00;11.98;;;4.30;;
56381;SDS011;50261;51.150;4.470;2023-07-16T10:42:27;12.82;;;3.97;;
56381;SDS011;50261;51.150;4.470;2023-07-16T10:44:53;10.95;;;4.60;;
56381;SDS011;50261;51.150;4.470;2023-07-16T10:47:20;8.48;;;4.47;;
56381;SDS011;50261;51.150;4.470;2023-07-16T10:49:46;11.40;;;4.82;;
56381;SDS011;50261;51.150;4.470;2023-07-16T10:52:12;7.35;;;3.97;;
56381;SDS011;50261;51.150;4.470;2023-07-16T10:54:39;8.15;;;4.20;;
56381;SDS011;50261;51.150;4.470;2023-07-16T10:57:05;8.27;;;3.60;;
56381;SDS011;50261;51.150;4.470;2023-07-16T10:59:31;10.48;;;2.75;;
56381;SDS011;50261;51.150;4.470;2023-07-16T11:01:57;10.30;;;4.90;;
56381;SDS011;50261;51.150;4.470;2023-07-16T11:04:23;15.05;;;5.70;;
56381;SDS011;50261;51.150;4.470;2023-07-16T11:06:52;10.18;;;4.00;;
56381;SDS011;50261;51.150;4.470;2023-07-16T11:09:17;11.70;;;5.30;;
56381;SDS011;50261;51.150;4.470;2023-07-16T11:11:43;10.73;;;4.40;;
56381;SDS011;50261;51.150;4.470;2023-07-16T11:14:09;8.60;;;4.40;;
56381;SDS011;50261;51.150;4.470;2023-07-16T11:16:38;10.93;;;5.38;;
56381;SDS011;50261;51.150;4.470;2023-07-16T11:19:04;7.25;;;3.75;;
56381;SDS011;50261;51.150;4.470;2023-07-16T11:21:31;7.70;;;3.92;;
56381;SDS011;50261;51.150;4.470;2023-07-16T11:24:06;7.50;;;3.80;;
56381;SDS011;50261;51.150;4.470;2023-07-16T11:26:32;6.18;;;3.08;;
56381;SDS011;50261;51.150;4.470;2023-07-16T11:28:58;7.72;;;3.00;;
56381;SDS011;50261;51.150;4.470;2023-07-16T11:31:23;8.38;;;3.67;;
56381;SDS011;50261;51.150;4.470;2023-07-16T11:33:49;5.32;;;3.00;;
56381;SDS011;50261;51.150;4.470;2023-07-16T11:36:16;4.97;;;2.45;;
56381;SDS011;50261;51.150;4.470;2023-07-16T11:38:42;6.68;;;3.00;;
56381;SDS011;50261;51.150;4.470;2023-07-16T11:41:08;6.22;;;3.00;;
56381;SDS011;50261;51.150;4.470;2023-07-16T11:43:34;7.55;;;2.83;;
56381;SDS011;50261;51.150;4.470;2023-07-16T11:46:01;6.22;;;2.80;;
56381;SDS011;50261;51.150;4.470;2023-07-16T11:48:27;4.35;;;2.63;;
56381;SDS011;50261;51.150;4.470;2023-07-16T11:50:53;6.72;;;2.47;;
56381;SDS011;50261;51.150;4.470;2023-07-16T11:53:18;4.40;;;2.00;;
56381;SDS011;50261;51.150;4.470;2023-07-16T11:55:44;4.30;;;2.15;;
56381;SDS011;50261;51.150;4.470;2023-07-16T11:58:10;5.10;;;2.20;;
56381;SDS011;50261;51.150;4.470;2023-07-16T12:00:35;4.38;;;1.63;;
56381;SDS011;50261;51.150;4.470;2023-07-16T12:03:01;3.97;;;1.50;;
56381;SDS011;50261;51.150;4.470;2023-07-16T12:05:26;3.58;;;1.88;;
56381;SDS011;50261;51.150;4.470;2023-07-16T12:07:53;4.97;;;1.80;;
56381;SDS011;50261;51.150;4.470;2023-07-16T12:10:19;5.47;;;1.75;;
56381;SDS011;50261;51.150;4.470;2023-07-16T12:12:45;4.85;;;2.03;;
56381;SDS011;50261;51.150;4.470;2023-07-16T12:15:11;5.75;;;2.35;;
56381;SDS011;50261;51.150;4.470;2023-07-16T12:17:37;7.47;;;2.38;;
56381;SDS011;50261;51.150;4.470;2023-07-16T12:20:03;4.18;;;2.20;;
56381;SDS011;50261;51.150;4.470;2023-07-16T12:22:30;7.43;;;2.60;;
56381;SDS011;50261;51.150;4.470;2023-07-16T12:24:55;4.90;;;2.80;;
56381;SDS011;50261;51.150;4.470;2023-07-16T12:27:21;5.07;;;2.92;;
56381;SDS011;50261;51.150;4.470;2023-07-16T12:29:47;6.43;;;2.83;;
56381;SDS011;50261;51.150;4.470;2023-07-16T12:32:13;6.18;;;2.65;;
56381;SDS011;50261;51.150;4.470;2023-07-16T12:34:39;4.68;;;2.40;;
56381;SDS011;50261;51.150;4.470;2023-07-16T12:37:05;5.85;;;2.88;;
56381;SDS011;50261;51.150;4.470;2023-07-16T12:39:30;4.00;;;2.40;;
56381;SDS011;50261;51.150;4.470;2023-07-16T12:41:56;6.47;;;2.90;;
56381;SDS011;50261;51.150;4.470;2023-07-16T12:44:21;7.20;;;2.85;;
56381;SDS011;50261;51.150;4.470;2023-07-16T12:46:47;5.07;;;2.53;;
56381;SDS011;50261;51.150;4.470;2023-07-16T12:49:13;6.50;;;2.97;;
56381;SDS011;50261;51.150;4.470;2023-07-16T12:51:38;5.72;;;2.60;;
56381;SDS011;50261;51.150;4.470;2023-07-16T12:54:04;4.90;;;2.60;;
56381;SDS011;50261;51.150;4.470;2023-07-16T12:56:30;7.55;;;2.20;;
56381;SDS011;50261;51.150;4.470;2023-07-16T12:58:56;4.03;;;1.95;;
56381;SDS011;50261;51.150;4.470;2023-07-16T13:01:22;9.02;;;2.38;;
56381;SDS011;50261;51.150;4.470;2023-07-16T13:03:48;7.18;;;2.00;;
56381;SDS011;50261;51.150;4.470;2023-07-16T13:06:13;5.32;;;2.15;;
56381;SDS011;50261;51.150;4.470;2023-07-16T13:08:39;5.60;;;2.55;;
56381;SDS011;50261;51.150;4.470;2023-07-16T13:11:05;5.35;;;2.08;;
56381;SDS011;50261;51.150;4.470;2023-07-16T13:13:30;8.00;;;2.22;;
56381;SDS011;50261;51.150;4.470;2023-07-16T13:15:56;6.07;;;2.75;;
56381;SDS011;50261;51.150;4.470;2023-07-16T13:18:22;6.90;;;2.40;;
56381;SDS011;50261;51.150;4.470;2023-07-16T13:20:48;4.75;;;1.67;;
56381;SDS011;50261;51.150;4.470;2023-07-16T13:23:13;4.15;;;1.77;;
56381;SDS011;50261;51.150;4.470;2023-07-16T13:25:39;6.90;;;2.08;;
56381;SDS011;50261;51.150;4.470;2023-07-16T13:28:05;6.07;;;1.83;;
56381;SDS011;50261;51.150;4.470;2023-07-16T13:30:31;5.32;;;2.30;;
56381;SDS011;50261;51.150;4.470;2023-07-16T13:32:57;4.20;;;2.20;;
56381;SDS011;50261;51.150;4.470;2023-07-16T13:35:23;5.32;;;1.90;;
56381;SDS011;50261;51.150;4.470;2023-07-16T13:37:49;7.05;;;1.85;;
56381;SDS011;50261;51.150;4.470;2023-07-16T13:40:15;5.95;;;2.42;;
56381;SDS011;50261;51.150;4.470;2023-07-16T13:42:40;6.28;;;2.33;;
56381;SDS011;50261;51.150;4.470;2023-07-16T13:45:06;5.68;;;1.83;;
56381;SDS011;50261;51.150;4.470;2023-07-16T13:47:32;6.05;;;2.22;;
56381;SDS011;50261;51.150;4.470;2023-07-16T13:49:58;5.07;;;1.95;;
56381;SDS011;50261;51.150;4.470;2023-07-16T13:52:23;6.20;;;1.48;;
56381;SDS011;50261;51.150;4.470;2023-07-16T13:54:49;4.90;;;1.90;;
56381;SDS011;50261;51.150;4.470;2023-07-16T13:57:15;2.03;;;0.90;;
56381;SDS011;50261;51.150;4.470;2023-07-16T13:59:40;1.05;;;0.60;;
56381;SDS011;50261;51.150;4.470;2023-07-16T14:02:06;1.42;;;0.75;;
56381;SDS011;50261;51.150;4.470;2023-07-16T14:04:32;2.13;;;0.88;;
56381;SDS011;50261;51.150;4.470;2023-07-16T14:06:58;3.13;;;1.00;;
56381;SDS011;50261;51.150;4.470;2023-07-16T14:09:24;2.35;;;0.90;;
56381;SDS011;50261;51.150;4.470;2023-07-16T14:11:49;3.33;;;1.02;;
56381;SDS011;50261;51.150;4.470;2023-07-16T14:14:15;1.42;;;0.80;;
56381;SDS011;50261;51.150;4.470;2023-07-16T14:16:41;2.55;;;0.98;;
56381;SDS011;50261;51.150;4.470;2023-07-16T14:19:08;2.08;;;0.95;;
56381;SDS011;50261;51.150;4.470;2023-07-16T14:21:33;2.35;;;1.00;;
56381;SDS011;50261;51.150;4.470;2023-07-16T14:23:59;4.55;;;1.30;;
56381;SDS011;50261;51.150;4.470;2023-07-16T14:26:25;2.13;;;0.80;;
56381;SDS011;50261;51.150;4.470;2023-07-16T14:28:50;2.97;;;0.80;;
56381;SDS011;50261;51.150;4.470;2023-07-16T14:31:16;1.05;;;0.60;;
56381;SDS011;50261;51.150;4.470;2023-07-16T14:33:42;1.50;;;0.47;;
56381;SDS011;50261;51.150;4.470;2023-07-16T14:36:07;1.48;;;0.77;;
56381;SDS011;50261;51.150;4.470;2023-07-16T14:38:33;2.25;;;0.88;;
56381;SDS011;50261;51.150;4.470;2023-07-16T14:40:59;2.05;;;0.80;;
56381;SDS011;50261;51.150;4.470;2023-07-16T14:43:25;2.00;;;0.60;;